Time;durP1;ratioP1;P1;durP2;ratioP2;P2;SDS_P1;SDS_P2;PMS_P1;PMS_P2;Temp;Humidity;BMP_temperature;BMP_pressure;BME280_temperature;BME280_humidity;BME280_pressure;Samples;Min_cycle;Max_cycle;Signal;HPM_P1;HPM_P2
2021/05/05 00:00:37;;;;;;;1.47;0.60;;;;;;;;;;5014359;28;20250;-58
2021/05/05 00:03:05;;;;;;;0.23;0.20;;;;;;;;;;5012089;28;20283;-61
2021/05/05 00:05:33;;;;;;;0.10;0.10;;;;;;;;;;5015432;28;20179;-62
2021/05/05 00:08:03;;;;;;;0.00;0.00;;;;;;;;;;5019277;28;20209;-62
2021/05/05 00:10:30;;;;;;;0.20;0.20;;;;;;;;;;5015028;28;20177;-62
2021/05/05 00:12:58;;;;;;;0.00;0.00;;;;;;;;;;5014705;28;20864;-63
2021/05/05 00:15:25;;;;;;;0.00;0.00;;;;;;;;;;5013610;28;20180;-63
2021/05/05 00:17:52;;;;;;;0.00;0.00;;;;;;;;;;5011197;28;20187;-63
2021/05/05 00:20:21;;;;;;;2.10;0.83;;;;;;;;;;5010978;28;20654;-62
2021/05/05 00:22:48;;;;;;;0.13;0.10;;;;;;;;;;5014245;28;20642;-62
2021/05/05 00:25:15;;;;;;;0.10;0.10;;;;;;;;;;5019507;28;20172;-63
2021/05/05 00:27:42;;;;;;;0.00;0.00;;;;;;;;;;5018728;28;20192;-62
2021/05/05 00:30:11;;;;;;;0.43;0.30;;;;;;;;;;5014823;28;20242;-62
2021/05/05 00:32:38;;;;;;;1.50;0.17;;;;;;;;;;5012055;28;20217;-62
2021/05/05 00:35:05;;;;;;;0.20;0.10;;;;;;;;;;5013529;28;20176;-62
2021/05/05 00:37:33;;;;;;;1.27;0.60;;;;;;;;;;5018756;28;20291;-61
2021/05/05 00:40:02;;;;;;;0.00;0.00;;;;;;;;;;5012569;28;20191;-61
2021/05/05 00:42:28;;;;;;;0.53;0.20;;;;;;;;;;5011030;28;20350;-61
2021/05/05 00:44:59;;;;;;;3.93;0.30;;;;;;;;;;5009768;28;20547;-61
2021/05/05 00:47:26;;;;;;;0.00;0.00;;;;;;;;;;5012761;28;20172;-60
2021/05/05 00:49:53;;;;;;;0.00;0.00;;;;;;;;;;5009967;28;20196;-61
2021/05/05 00:52:20;;;;;;;0.70;0.40;;;;;;;;;;5013060;28;20197;-63
2021/05/05 00:54:47;;;;;;;0.07;0.00;;;;;;;;;;5010507;28;20212;-62
2021/05/05 00:57:14;;;;;;;0.00;0.00;;;;;;;;;;5012987;28;20223;-63
2021/05/05 00:59:41;;;;;;;0.00;0.00;;;;;;;;;;5011894;28;20210;-63
2021/05/05 01:02:08;;;;;;;0.10;0.10;;;;;;;;;;5012801;28;20594;-63
2021/05/05 01:04:35;;;;;;;2.53;1.50;;;;;;;;;;5008777;28;20211;-62
2021/05/05 01:07:02;;;;;;;0.10;0.10;;;;;;;;;;5009816;28;20194;-59
2021/05/05 01:09:28;;;;;;;0.00;0.00;;;;;;;;;;5013302;28;20229;-62
2021/05/05 01:11:55;;;;;;;0.00;0.00;;;;;;;;;;5012925;28;20621;-62
2021/05/05 01:14:25;;;;;;;0.00;0.00;;;;;;;;;;5011829;28;20251;-59
2021/05/05 01:16:53;;;;;;;0.17;0.10;;;;;;;;;;5012554;28;20188;-59
2021/05/05 01:19:22;;;;;;;0.37;0.37;;;;;;;;;;5011146;28;20199;-62
2021/05/05 01:21:50;;;;;;;0.00;0.00;;;;;;;;;;5008529;28;20195;-62
2021/05/05 01:24:19;;;;;;;2.43;1.13;;;;;;;;;;5027926;28;20535;-62
2021/05/05 01:26:45;;;;;;;0.00;0.00;;;;;;;;;;5012497;28;20251;-63
2021/05/05 01:29:12;;;;;;;0.30;0.30;;;;;;;;;;5014841;28;20675;-62
2021/05/05 01:31:38;;;;;;;0.33;0.33;;;;;;;;;;5011201;28;20284;-62
2021/05/05 01:34:06;;;;;;;0.00;0.00;;;;;;;;;;5014682;28;20700;-63
2021/05/05 01:36:34;;;;;;;0.10;0.10;;;;;;;;;;5014514;28;20181;-62
2021/05/05 01:39:01;;;;;;;0.07;0.07;;;;;;;;;;5021362;28;20188;-62
2021/05/05 01:41:27;;;;;;;1.53;1.10;;;;;;;;;;5013510;28;20452;-61
2021/05/05 01:43:55;;;;;;;2.10;0.97;;;;;;;;;;5012208;28;20586;-62
2021/05/05 01:46:22;;;;;;;0.10;0.10;;;;;;;;;;5007213;28;20803;-62
2021/05/05 01:48:50;;;;;;;1.93;1.57;;;;;;;;;;5016768;28;20605;-62
2021/05/05 01:51:17;;;;;;;0.07;0.07;;;;;;;;;;5015029;28;20200;-62
2021/05/05 01:53:43;;;;;;;0.23;0.23;;;;;;;;;;5011093;28;20239;-62
2021/05/05 01:56:10;;;;;;;2.50;1.00;;;;;;;;;;5012181;28;20654;-62
2021/05/05 01:58:37;;;;;;;0.23;0.23;;;;;;;;;;5015394;28;20666;-62
2021/05/05 02:01:04;;;;;;;0.03;0.03;;;;;;;;;;5018074;28;20648;-62
2021/05/05 02:03:31;;;;;;;1.50;0.63;;;;;;;;;;5019099;28;20181;-62
2021/05/05 02:05:57;;;;;;;2.33;0.93;;;;;;;;;;5021471;28;20230;-62
2021/05/05 02:08:24;;;;;;;0.00;0.00;;;;;;;;;;5016610;28;20192;-62
2021/05/05 02:10:50;;;;;;;1.43;0.53;;;;;;;;;;5016441;28;20266;-62
2021/05/05 02:13:17;;;;;;;0.00;0.00;;;;;;;;;;5016618;28;20212;-62
2021/05/05 02:15:44;;;;;;;0.00;0.00;;;;;;;;;;5020152;28;20321;-62
2021/05/05 02:18:10;;;;;;;0.00;0.00;;;;;;;;;;5023454;28;20227;-62
2021/05/05 02:20:38;;;;;;;0.00;0.00;;;;;;;;;;5020308;28;20713;-62
2021/05/05 02:23:08;;;;;;;0.07;0.07;;;;;;;;;;5017775;28;20187;-62
2021/05/05 02:25:35;;;;;;;1.07;0.30;;;;;;;;;;5029787;28;20226;-62
2021/05/05 02:28:02;;;;;;;0.00;0.00;;;;;;;;;;5021986;28;20185;-62
2021/05/05 02:30:29;;;;;;;0.43;0.33;;;;;;;;;;5016201;28;20231;-62
2021/05/05 02:32:55;;;;;;;7.93;0.50;;;;;;;;;;5015161;28;20212;-62
2021/05/05 02:35:22;;;;;;;0.00;0.00;;;;;;;;;;5020011;28;20493;-62
2021/05/05 02:37:51;;;;;;;0.00;0.00;;;;;;;;;;5017247;28;20429;-63
2021/05/05 02:40:17;;;;;;;0.27;0.03;;;;;;;;;;5015970;28;20199;-62
2021/05/05 02:42:44;;;;;;;5.10;1.60;;;;;;;;;;5019568;28;20646;-62
2021/05/05 02:45:10;;;;;;;5.30;2.23;;;;;;;;;;5027138;28;20215;-62
2021/05/05 02:47:37;;;;;;;0.40;0.40;;;;;;;;;;5023344;28;20633;-62
2021/05/05 02:50:05;;;;;;;0.10;0.10;;;;;;;;;;5024258;28;20181;-62
2021/05/05 02:52:31;;;;;;;0.20;0.17;;;;;;;;;;5022103;28;20242;-62
2021/05/05 02:54:58;;;;;;;4.00;0.80;;;;;;;;;;5022241;28;21544;-62
2021/05/05 02:57:26;;;;;;;0.40;0.40;;;;;;;;;;5020466;28;20192;-62
2021/05/05 02:59:52;;;;;;;0.23;0.23;;;;;;;;;;5020305;28;20282;-62
2021/05/05 03:02:19;;;;;;;0.20;0.20;;;;;;;;;;5020443;28;20184;-62
2021/05/05 03:04:46;;;;;;;4.33;0.50;;;;;;;;;;5023279;28;20184;-62
2021/05/05 03:07:13;;;;;;;0.30;0.30;;;;;;;;;;5022420;28;20176;-62
2021/05/05 03:09:39;;;;;;;0.10;0.10;;;;;;;;;;5020511;28;20184;-62
2021/05/05 03:12:06;;;;;;;1.13;0.70;;;;;;;;;;5019212;28;20727;-62
2021/05/05 03:14:33;;;;;;;0.00;0.00;;;;;;;;;;5017435;28;20306;-62
2021/05/05 03:17:01;;;;;;;0.10;0.10;;;;;;;;;;5013440;28;20192;-63
2021/05/05 03:19:27;;;;;;;0.00;0.00;;;;;;;;;;5018248;28;20219;-62
2021/05/05 03:21:55;;;;;;;0.10;0.10;;;;;;;;;;5021066;28;20235;-62
2021/05/05 03:24:21;;;;;;;0.40;0.30;;;;;;;;;;5021445;28;20195;-62
2021/05/05 03:26:48;;;;;;;1.27;0.30;;;;;;;;;;5021676;28;20254;-62
2021/05/05 03:29:16;;;;;;;0.00;0.00;;;;;;;;;;5025235;28;20185;-62
2021/05/05 03:31:42;;;;;;;0.00;0.00;;;;;;;;;;5018672;28;20588;-62
2021/05/05 03:34:09;;;;;;;0.00;0.00;;;;;;;;;;5019201;28;20216;-62
2021/05/05 03:36:35;;;;;;;0.13;0.13;;;;;;;;;;5020824;28;20191;-62
2021/05/05 03:39:02;;;;;;;3.73;0.33;;;;;;;;;;5018368;28;20203;-62
2021/05/05 03:41:29;;;;;;;0.30;0.30;;;;;;;;;;5027978;28;21049;-62
2021/05/05 03:43:56;;;;;;;0.00;0.00;;;;;;;;;;5019062;28;20183;-62
2021/05/05 03:46:23;;;;;;;1.20;1.20;;;;;;;;;;5021080;28;20191;-62
2021/05/05 03:48:49;;;;;;;0.03;0.03;;;;;;;;;;5017926;28;20837;-62
2021/05/05 03:51:16;;;;;;;0.00;0.00;;;;;;;;;;5013381;28;20215;-62
2021/05/05 03:53:42;;;;;;;3.53;1.97;;;;;;;;;;5015530;28;20231;-62
2021/05/05 03:56:11;;;;;;;0.00;0.00;;;;;;;;;;5029625;28;20215;-62
2021/05/05 03:58:38;;;;;;;0.10;0.10;;;;;;;;;;5025953;28;20288;-62
2021/05/05 04:01:04;;;;;;;0.90;0.30;;;;;;;;;;5020986;28;20187;-62
2021/05/05 04:03:31;;;;;;;0.00;0.00;;;;;;;;;;5017598;28;20570;-61
2021/05/05 04:05:57;;;;;;;0.00;0.00;;;;;;;;;;5021541;28;20519;-62
2021/05/05 04:08:24;;;;;;;1.60;1.50;;;;;;;;;;5020303;28;20657;-63
2021/05/05 04:10:50;;;;;;;0.10;0.10;;;;;;;;;;5016007;28;20806;-62
2021/05/05 04:13:17;;;;;;;0.27;0.27;;;;;;;;;;5030607;28;20233;-62
2021/05/05 04:15:43;;;;;;;0.33;0.33;;;;;;;;;;5021670;28;20204;-62
2021/05/05 04:18:10;;;;;;;0.00;0.00;;;;;;;;;;5030737;28;20673;-62
2021/05/05 04:20:36;;;;;;;0.10;0.10;;;;;;;;;;5018005;28;20176;-62
2021/05/05 04:23:03;;;;;;;0.63;0.47;;;;;;;;;;5015020;28;20664;-62
2021/05/05 04:25:30;;;;;;;5.00;0.37;;;;;;;;;;5020391;28;20282;-62
2021/05/05 04:27:56;;;;;;;0.10;0.10;;;;;;;;;;5022480;28;20180;-62
2021/05/05 04:30:23;;;;;;;4.03;1.23;;;;;;;;;;5017731;28;20204;-61
2021/05/05 04:32:51;;;;;;;0.47;0.47;;;;;;;;;;5021838;28;20195;-62
2021/05/05 04:35:17;;;;;;;0.10;0.10;;;;;;;;;;5015051;28;20188;-61
2021/05/05 04:37:44;;;;;;;0.70;0.70;;;;;;;;;;5015431;28;20181;-62
2021/05/05 04:40:11;;;;;;;0.20;0.20;;;;;;;;;;5020838;28;20255;-62
2021/05/05 04:42:38;;;;;;;0.00;0.00;;;;;;;;;;5014524;28;21207;-61
2021/05/05 04:45:05;;;;;;;0.63;0.63;;;;;;;;;;5016357;28;20505;-62
2021/05/05 04:47:32;;;;;;;1.67;0.40;;;;;;;;;;5018676;28;20188;-62
2021/05/05 04:49:59;;;;;;;0.00;0.00;;;;;;;;;;5016144;28;20204;-62
2021/05/05 04:52:25;;;;;;;0.07;0.07;;;;;;;;;;5022020;28;20186;-62
2021/05/05 04:54:51;;;;;;;0.00;0.00;;;;;;;;;;5013928;28;20295;-61
2021/05/05 04:57:18;;;;;;;0.10;0.10;;;;;;;;;;5015638;28;20900;-62
2021/05/05 04:59:44;;;;;;;0.00;0.00;;;;;;;;;;5026780;28;20512;-62
2021/05/05 05:02:11;;;;;;;2.93;1.47;;;;;;;;;;5021006;28;20609;-62
2021/05/05 05:04:38;;;;;;;0.27;0.27;;;;;;;;;;5016056;28;20180;-62
2021/05/05 05:07:07;;;;;;;0.77;0.40;;;;;;;;;;5016059;28;20188;-63
2021/05/05 05:09:34;;;;;;;0.00;0.00;;;;;;;;;;5015788;28;20394;-62
2021/05/05 05:12:01;;;;;;;0.43;0.43;;;;;;;;;;5015150;28;20209;-62
2021/05/05 05:14:27;;;;;;;0.20;0.20;;;;;;;;;;5015017;28;20261;-62
2021/05/05 05:16:54;;;;;;;1.23;0.77;;;;;;;;;;5013943;28;20176;-63
2021/05/05 05:19:20;;;;;;;0.47;0.47;;;;;;;;;;5015724;28;20177;-62
2021/05/05 05:21:48;;;;;;;0.00;0.00;;;;;;;;;;5025241;28;20176;-63
2021/05/05 05:24:15;;;;;;;2.43;0.97;;;;;;;;;;5017346;28;20180;-62
2021/05/05 05:26:41;;;;;;;0.00;0.00;;;;;;;;;;5016153;28;20180;-62
2021/05/05 05:29:07;;;;;;;0.00;0.00;;;;;;;;;;5017652;28;20193;-62
2021/05/05 05:31:34;;;;;;;0.20;0.20;;;;;;;;;;5026476;28;20245;-62
2021/05/05 05:34:00;;;;;;;0.17;0.17;;;;;;;;;;5017772;28;20203;-62
2021/05/05 05:36:27;;;;;;;11.57;0.90;;;;;;;;;;5016026;28;20480;-62
2021/05/05 05:38:53;;;;;;;0.57;0.37;;;;;;;;;;5018705;28;20263;-62
2021/05/05 05:41:20;;;;;;;2.43;0.33;;;;;;;;;;5019047;28;20472;-62
2021/05/05 05:43:46;;;;;;;0.00;0.00;;;;;;;;;;5018772;28;20683;-62
2021/05/05 05:46:13;;;;;;;0.00;0.00;;;;;;;;;;5019657;28;20595;-62
2021/05/05 05:48:39;;;;;;;0.00;0.00;;;;;;;;;;5020273;28;20187;-62
2021/05/05 05:51:09;;;;;;;0.00;0.00;;;;;;;;;;5016061;28;20513;-62
2021/05/05 05:53:35;;;;;;;1.23;1.03;;;;;;;;;;5019158;28;20259;-63
2021/05/05 05:56:02;;;;;;;1.83;0.93;;;;;;;;;;5018052;28;20180;-62
2021/05/05 05:58:28;;;;;;;0.10;0.10;;;;;;;;;;5017457;28;20286;-62
2021/05/05 06:00:55;;;;;;;0.00;0.00;;;;;;;;;;5028235;28;20525;-62
2021/05/05 06:03:21;;;;;;;0.00;0.00;;;;;;;;;;5021001;28;20526;-62
2021/05/05 06:05:48;;;;;;;0.57;0.27;;;;;;;;;;5013539;28;20191;-62
2021/05/05 06:08:14;;;;;;;0.00;0.00;;;;;;;;;;5010227;28;20191;-62
2021/05/05 06:10:41;;;;;;;0.07;0.07;;;;;;;;;;5010898;28;20826;-62
2021/05/05 06:13:08;;;;;;;0.07;0.07;;;;;;;;;;5014347;28;20208;-62
2021/05/05 06:15:34;;;;;;;0.20;0.20;;;;;;;;;;5004336;28;20176;-62
2021/05/05 06:18:02;;;;;;;0.17;0.17;;;;;;;;;;5007918;28;20183;-62
2021/05/05 06:20:29;;;;;;;0.57;0.20;;;;;;;;;;5006750;28;20180;-61
2021/05/05 06:22:56;;;;;;;0.00;0.00;;;;;;;;;;5009257;28;20667;-61
2021/05/05 06:25:22;;;;;;;1.83;0.37;;;;;;;;;;5014931;28;20192;-62
2021/05/05 06:27:49;;;;;;;1.43;0.67;;;;;;;;;;5018547;28;20428;-62
2021/05/05 06:30:16;;;;;;;0.00;0.00;;;;;;;;;;5018633;28;20184;-62
2021/05/05 06:32:42;;;;;;;0.20;0.20;;;;;;;;;;5008882;28;20191;-62
2021/05/05 06:35:09;;;;;;;1.23;0.80;;;;;;;;;;5014792;28;20833;-62
2021/05/05 06:37:36;;;;;;;0.60;0.60;;;;;;;;;;5015784;28;20554;-61
2021/05/05 06:40:03;;;;;;;4.50;1.03;;;;;;;;;;5007847;28;20184;-62
2021/05/05 06:42:30;;;;;;;0.37;0.37;;;;;;;;;;5016907;28;20208;-62
2021/05/05 06:44:57;;;;;;;0.00;0.00;;;;;;;;;;5013506;28;20185;-62
2021/05/05 06:47:23;;;;;;;0.30;0.20;;;;;;;;;;5014594;28;20188;-62
2021/05/05 06:49:50;;;;;;;0.00;0.00;;;;;;;;;;5015757;28;20180;-61
2021/05/05 06:52:16;;;;;;;0.40;0.40;;;;;;;;;;5012693;28;20212;-61
2021/05/05 06:54:43;;;;;;;0.00;0.00;;;;;;;;;;5010853;28;20231;-62
2021/05/05 06:57:09;;;;;;;0.10;0.10;;;;;;;;;;5015287;28;20390;-62
2021/05/05 06:59:36;;;;;;;2.90;0.60;;;;;;;;;;5016992;28;20282;-61
2021/05/05 07:02:02;;;;;;;1.50;0.70;;;;;;;;;;5015172;28;20180;-62
2021/05/05 07:04:29;;;;;;;2.13;1.23;;;;;;;;;;5018765;28;20226;-61
2021/05/05 07:06:55;;;;;;;0.27;0.27;;;;;;;;;;5017551;28;20188;-62
2021/05/05 07:09:22;;;;;;;4.50;1.00;;;;;;;;;;5018124;28;20594;-62
2021/05/05 07:11:48;;;;;;;0.20;0.20;;;;;;;;;;5016876;28;20178;-62
2021/05/05 07:14:15;;;;;;;0.43;0.33;;;;;;;;;;5014954;28;20200;-62
2021/05/05 07:16:41;;;;;;;0.00;0.00;;;;;;;;;;5017189;28;20202;-61
2021/05/05 07:19:08;;;;;;;1.43;0.90;;;;;;;;;;5016129;28;20458;-62
2021/05/05 07:21:35;;;;;;;0.00;0.00;;;;;;;;;;5016218;28;20188;-62
2021/05/05 07:24:01;;;;;;;0.00;0.00;;;;;;;;;;5017903;28;20549;-62
2021/05/05 07:26:28;;;;;;;0.00;0.00;;;;;;;;;;5015807;28;20195;-62
2021/05/05 07:28:56;;;;;;;0.00;0.00;;;;;;;;;;5016135;28;20194;-62
2021/05/05 07:31:23;;;;;;;0.00;0.00;;;;;;;;;;5024456;28;20191;-62
2021/05/05 07:33:51;;;;;;;0.53;0.47;;;;;;;;;;5024124;28;20204;-62
2021/05/05 07:36:24;;;;;;;0.07;0.07;;;;;;;;;;5024599;28;20187;-62
2021/05/05 07:47:07;;;;;;;1.20;0.73;;;;;;;;;;5015480;28;20214;-62
2021/05/05 07:49:48;;;;;;;1.70;1.70;;;;;;;;;;5017459;28;20728;-62
2021/05/05 07:52:15;;;;;;;1.50;0.30;;;;;;;;;;5019157;28;20621;-62
2021/05/05 07:54:42;;;;;;;0.10;0.10;;;;;;;;;;5015267;28;20895;-62
2021/05/05 07:57:08;;;;;;;0.10;0.10;;;;;;;;;;5013460;28;20984;-62
2021/05/05 07:59:35;;;;;;;0.07;0.07;;;;;;;;;;5015018;28;20199;-62
2021/05/05 08:02:01;;;;;;;0.00;0.00;;;;;;;;;;5016268;28;20199;-62
2021/05/05 08:04:28;;;;;;;0.10;0.07;;;;;;;;;;5014539;28;20191;-61
2021/05/05 08:06:54;;;;;;;0.00;0.00;;;;;;;;;;5016172;28;20182;-62
2021/05/05 08:09:22;;;;;;;0.53;0.53;;;;;;;;;;5015495;28;20653;-62
2021/05/05 08:11:49;;;;;;;0.43;0.30;;;;;;;;;;5015747;28;20593;-62
2021/05/05 08:14:15;;;;;;;0.10;0.10;;;;;;;;;;5016708;28;20772;-63
2021/05/05 08:16:42;;;;;;;5.00;0.47;;;;;;;;;;5015963;28;20217;-62
2021/05/05 08:19:08;;;;;;;0.00;0.00;;;;;;;;;;5015790;28;20498;-62
2021/05/05 08:21:34;;;;;;;0.27;0.23;;;;;;;;;;5014296;28;20609;-62
2021/05/05 08:24:01;;;;;;;1.57;0.47;;;;;;;;;;5025567;28;20613;-61
2021/05/05 08:26:30;;;;;;;0.50;0.50;;;;;;;;;;5018601;28;20886;-62
2021/05/05 08:28:56;;;;;;;0.00;0.00;;;;;;;;;;5016357;28;20273;-62
2021/05/05 08:31:23;;;;;;;0.30;0.30;;;;;;;;;;5017895;28;20213;-62
2021/05/05 08:33:49;;;;;;;0.00;0.00;;;;;;;;;;5022663;28;20242;-62
2021/05/05 08:36:16;;;;;;;0.43;0.43;;;;;;;;;;5014329;28;20169;-63
2021/05/05 08:38:42;;;;;;;0.00;0.00;;;;;;;;;;5012967;28;20187;-62
2021/05/05 08:41:12;;;;;;;8.40;1.40;;;;;;;;;;5014546;28;20943;-62
2021/05/05 08:43:39;;;;;;;0.00;0.00;;;;;;;;;;5014950;28;20723;-62
2021/05/05 08:46:07;;;;;;;0.10;0.10;;;;;;;;;;5015487;28;20419;-62
2021/05/05 08:48:35;;;;;;;0.00;0.00;;;;;;;;;;5015918;28;20190;-62
2021/05/05 08:51:03;;;;;;;0.27;0.07;;;;;;;;;;5015750;28;20696;-63
2021/05/05 08:53:30;;;;;;;0.10;0.10;;;;;;;;;;5023262;28;20235;-62
2021/05/05 08:55:56;;;;;;;0.10;0.10;;;;;;;;;;5012031;28;20566;-62
2021/05/05 08:58:23;;;;;;;0.83;0.70;;;;;;;;;;5016623;28;20184;-62
2021/05/05 09:00:49;;;;;;;0.10;0.10;;;;;;;;;;5013591;28;20186;-62
2021/05/05 09:03:16;;;;;;;0.57;0.57;;;;;;;;;;5016070;28;20656;-62
2021/05/05 09:05:58;;;;;;;0.00;0.00;;;;;;;;;;5015182;28;20180;-62
2021/05/05 09:08:25;;;;;;;0.83;0.83;;;;;;;;;;5013737;28;20241;-62
2021/05/05 09:10:56;;;;;;;0.00;0.00;;;;;;;;;;5016414;28;20198;-62
2021/05/05 09:13:24;;;;;;;0.00;0.00;;;;;;;;;;5018196;28;20204;-61
2021/05/05 09:16:06;;;;;;;0.20;0.20;;;;;;;;;;5020724;28;20179;-62
2021/05/05 09:18:50;;;;;;;2.27;1.53;;;;;;;;;;5021508;28;20186;-62
2021/05/05 09:21:23;;;;;;;0.00;0.00;;;;;;;;;;5026262;28;20179;-62
2021/05/05 09:23:49;;;;;;;0.13;0.13;;;;;;;;;;5025910;28;20195;-61
2021/05/05 09:26:36;;;;;;;0.00;0.00;;;;;;;;;;5017675;28;20173;-62
2021/05/05 09:29:03;;;;;;;0.40;0.30;;;;;;;;;;5020161;28;20973;-61
2021/05/05 09:31:34;;;;;;;0.20;0.20;;;;;;;;;;5024447;28;20572;-62
2021/05/05 09:34:01;;;;;;;1.33;0.63;;;;;;;;;;5018750;28;21035;-61
2021/05/05 09:36:28;;;;;;;0.27;0.23;;;;;;;;;;5019270;28;20208;-61
2021/05/05 09:38:55;;;;;;;5.93;0.23;;;;;;;;;;5017875;28;20653;-61
2021/05/05 09:41:27;;;;;;;0.20;0.20;;;;;;;;;;5021304;28;20194;-62
2021/05/05 09:43:54;;;;;;;0.00;0.00;;;;;;;;;;5018508;28;20183;-61
2021/05/05 09:46:47;;;;;;;0.50;0.50;;;;;;;;;;5017226;28;20573;-61
2021/05/05 09:49:18;;;;;;;0.07;0.07;;;;;;;;;;5021041;28;20665;-62
2021/05/05 09:51:54;;;;;;;0.10;0.10;;;;;;;;;;5018212;28;20976;-61
2021/05/05 09:54:40;;;;;;;0.00;0.00;;;;;;;;;;5017548;28;20708;-62
2021/05/05 09:57:17;;;;;;;0.00;0.00;;;;;;;;;;5017240;28;20179;-61
2021/05/05 10:00:02;;;;;;;0.00;0.00;;;;;;;;;;5019177;28;20248;-61
2021/05/05 10:02:30;;;;;;;0.00;0.00;;;;;;;;;;5018584;28;20529;-62
2021/05/05 10:04:57;;;;;;;0.50;0.50;;;;;;;;;;5024180;28;20509;-62
2021/05/05 10:07:23;;;;;;;0.03;0.03;;;;;;;;;;5018265;28;20179;-62
2021/05/05 10:09:50;;;;;;;0.00;0.00;;;;;;;;;;5022097;28;20345;-63
2021/05/05 12:56:51;;;;;;;0.70;0.50;;;;;;;;;;5073392;27;20923;-66
2021/05/05 12:59:24;;;;;;;0.00;0.00;;;;;;;;;;5048569;28;20181;-66
2021/05/05 13:02:02;;;;;;;1.33;0.70;;;;;;;;;;5046651;28;20185;-66
2021/05/05 13:04:55;;;;;;;0.00;0.00;;;;;;;;;;5050895;28;20369;-66
2021/05/05 13:07:27;;;;;;;0.10;0.10;;;;;;;;;;5045295;28;20578;-66
2021/05/05 13:10:09;;;;;;;0.30;0.27;;;;;;;;;;5050141;28;20648;-66
2021/05/05 13:12:45;;;;;;;0.20;0.20;;;;;;;;;;5049520;28;20185;-66
2021/05/05 13:15:32;;;;;;;0.00;0.00;;;;;;;;;;5052063;28;20228;-66
2021/05/05 13:18:21;;;;;;;0.10;0.10;;;;;;;;;;5047327;28;20198;-66
2021/05/05 13:30:06;;;;;;;1.07;0.73;;;;;;;;;;5050167;28;20192;-66
2021/05/05 13:32:34;;;;;;;0.00;0.00;;;;;;;;;;5052877;28;20266;-66
2021/05/05 13:35:20;;;;;;;0.00;0.00;;;;;;;;;;5052279;28;20579;-66
2021/05/05 13:38:10;;;;;;;0.20;0.20;;;;;;;;;;5047736;28;20185;-66
2021/05/05 13:40:39;;;;;;;0.57;0.57;;;;;;;;;;5045804;28;20252;-66
2021/05/05 13:43:18;;;;;;;0.00;0.00;;;;;;;;;;5050636;28;20699;-65
2021/05/05 13:45:50;;;;;;;0.33;0.33;;;;;;;;;;5044752;28;20582;-66
2021/05/05 13:51:01;;;;;;;5.70;1.23;;;;;;;;;;5044891;28;20714;-65
2021/05/05 13:53:28;;;;;;;0.00;0.00;;;;;;;;;;5048825;28;20192;-66
2021/05/05 13:55:54;;;;;;;0.27;0.10;;;;;;;;;;5049961;28;20227;-65
2021/05/05 13:58:21;;;;;;;0.00;0.00;;;;;;;;;;5050464;28;20555;-65
2021/05/05 14:00:47;;;;;;;2.57;0.00;;;;;;;;;;5045054;28;20283;-65
2021/05/05 14:03:14;;;;;;;0.07;0.07;;;;;;;;;;5051094;28;20579;-65
2021/05/05 14:05:44;;;;;;;1.67;1.57;;;;;;;;;;5048616;28;20191;-66
2021/05/05 14:08:11;;;;;;;0.00;0.00;;;;;;;;;;5036246;28;20206;-65
2021/05/05 14:10:38;;;;;;;0.07;0.00;;;;;;;;;;5037033;28;20528;-66
2021/05/05 14:13:04;;;;;;;0.47;0.47;;;;;;;;;;5034064;28;20565;-65
2021/05/05 14:15:35;;;;;;;0.10;0.10;;;;;;;;;;5035715;28;20652;-65
2021/05/05 14:18:02;;;;;;;1.07;0.43;;;;;;;;;;5020907;28;20274;-65
2021/05/05 14:20:29;;;;;;;0.10;0.10;;;;;;;;;;5033721;28;20184;-66
2021/05/05 14:22:56;;;;;;;0.60;0.10;;;;;;;;;;5038186;28;21564;-65
2021/05/05 14:25:23;;;;;;;0.27;0.27;;;;;;;;;;5030527;28;20646;-65
2021/05/05 14:27:53;;;;;;;0.30;0.00;;;;;;;;;;5038630;28;20558;-65
2021/05/05 14:30:20;;;;;;;0.30;0.00;;;;;;;;;;5038355;28;21023;-66
2021/05/05 14:32:48;;;;;;;0.00;0.00;;;;;;;;;;5042852;28;20286;-66
2021/05/05 14:35:15;;;;;;;0.00;0.00;;;;;;;;;;5033527;28;20681;-66
2021/05/05 14:37:43;;;;;;;0.27;0.17;;;;;;;;;;5031578;28;20190;-65
2021/05/05 14:40:12;;;;;;;0.00;0.00;;;;;;;;;;5042011;28;20179;-66
2021/05/05 14:42:47;;;;;;;0.00;0.00;;;;;;;;;;5023070;28;20194;-66
2021/05/05 14:50:18;;;;;;;0.53;0.23;;;;;;;;;;5031173;28;20188;-66
2021/05/05 14:52:45;;;;;;;1.07;0.20;;;;;;;;;;5025955;28;20436;-65
2021/05/05 14:55:12;;;;;;;0.00;0.00;;;;;;;;;;5027860;28;20259;-65
2021/05/05 14:57:41;;;;;;;0.87;0.63;;;;;;;;;;5037293;28;20205;-66
2021/05/05 15:00:08;;;;;;;0.50;0.37;;;;;;;;;;5037505;28;20590;-65
2021/05/05 15:02:35;;;;;;;0.50;0.47;;;;;;;;;;5036503;28;20194;-65
2021/05/05 15:05:02;;;;;;;5.07;0.47;;;;;;;;;;5034203;28;20183;-66
2021/05/05 15:07:31;;;;;;;0.47;0.20;;;;;;;;;;5036233;28;20183;-65
2021/05/05 15:10:01;;;;;;;4.03;1.80;;;;;;;;;;5035610;28;20541;-65
2021/05/05 15:13:12;;;;;;;1.17;0.73;;;;;;;;;;5037809;28;20647;-66
2021/05/05 15:29:31;;;;;;;2.43;0.93;;;;;;;;;;5034368;28;20189;-66
2021/05/05 15:37:26;;;;;;;0.33;0.30;;;;;;;;;;5033420;28;20240;-66
2021/05/05 15:39:55;;;;;;;4.37;0.67;;;;;;;;;;5032856;28;20726;-66
2021/05/05 15:42:22;;;;;;;0.00;0.00;;;;;;;;;;5029456;28;20221;-66
2021/05/05 15:44:53;;;;;;;2.70;1.10;;;;;;;;;;5035156;28;20648;-66
2021/05/05 15:47:21;;;;;;;3.30;2.53;;;;;;;;;;5032938;28;20191;-66
2021/05/05 15:49:51;;;;;;;6.13;0.77;;;;;;;;;;5035397;28;20325;-66
2021/05/05 15:52:20;;;;;;;0.00;0.00;;;;;;;;;;5032955;28;20268;-65
2021/05/05 15:54:48;;;;;;;0.00;0.00;;;;;;;;;;5032981;28;20593;-66
2021/05/05 15:57:15;;;;;;;0.00;0.00;;;;;;;;;;5031874;28;20271;-66
2021/05/05 15:59:56;;;;;;;5.73;1.90;;;;;;;;;;5035510;28;20260;-66
2021/05/05 16:13:24;;;;;;;0.00;0.00;;;;;;;;;;5033882;28;20230;-65
2021/05/05 16:18:27;;;;;;;0.00;0.00;;;;;;;;;;5007279;28;20231;-66
2021/05/05 16:23:40;;;;;;;1.23;0.63;;;;;;;;;;5015965;28;20192;-66
2021/05/05 16:26:24;;;;;;;0.57;0.00;;;;;;;;;;5005504;28;20243;-65
2021/05/05 16:55:06;;;;;;;0.00;0.00;;;;;;;;;;5013971;28;20282;-65
2021/05/05 17:00:41;;;;;;;0.17;0.17;;;;;;;;;;5018998;28;20517;-65
2021/05/05 17:08:42;;;;;;;1.20;0.57;;;;;;;;;;5017786;28;20233;-66
2021/05/05 17:11:08;;;;;;;2.23;0.77;;;;;;;;;;5011981;28;20207;-66
2021/05/05 17:13:35;;;;;;;1.13;0.53;;;;;;;;;;5016652;28;20214;-66
2021/05/05 17:16:02;;;;;;;1.77;0.70;;;;;;;;;;5017142;28;20201;-67
2021/05/05 17:21:15;;;;;;;0.00;0.00;;;;;;;;;;5016880;28;20233;-66
2021/05/05 17:23:48;;;;;;;0.00;0.00;;;;;;;;;;5014821;28;20603;-66
2021/05/05 17:26:36;;;;;;;2.10;1.17;;;;;;;;;;5011133;28;20311;-66
2021/05/05 17:45:40;;;;;;;0.00;0.00;;;;;;;;;;5021075;28;20375;-61
2021/05/05 18:13:49;;;;;;;2.23;0.37;;;;;;;;;;5014614;28;20320;-61
2021/05/05 18:16:15;;;;;;;0.07;0.07;;;;;;;;;;5018923;28;20967;-62
2021/05/05 18:18:49;;;;;;;0.10;0.10;;;;;;;;;;5018795;28;20191;-63
2021/05/05 18:21:22;;;;;;;0.00;0.00;;;;;;;;;;5021252;28;20180;-64
2021/05/05 18:23:52;;;;;;;0.83;0.33;;;;;;;;;;5029621;28;20185;-64
2021/05/05 18:26:27;;;;;;;0.00;0.00;;;;;;;;;;5031692;28;20915;-65
2021/05/05 18:31:23;;;;;;;7.90;0.50;;;;;;;;;;5020830;28;20188;-66
2021/05/05 18:33:51;;;;;;;0.77;0.77;;;;;;;;;;5029344;28;20182;-66
2021/05/05 18:36:20;;;;;;;1.70;0.47;;;;;;;;;;5026551;28;20216;-66
2021/05/05 18:38:55;;;;;;;0.27;0.27;;;;;;;;;;5033193;28;20192;-66
2021/05/05 18:41:39;;;;;;;0.83;0.30;;;;;;;;;;5026593;28;20175;-66
2021/05/05 19:09:04;;;;;;;1.83;0.50;;;;;;;;;;5019495;28;20196;-64
2021/05/05 19:17:26;;;;;;;0.00;0.00;;;;;;;;;;5016041;28;20307;-63
2021/05/05 19:26:37;;;;;;;0.50;0.50;;;;;;;;;;5015890;28;20295;-65
2021/05/05 20:33:05;;;;;;;0.20;0.20;;;;;;;;;;5013552;28;20193;-64
2021/05/05 20:47:09;;;;;;;0.50;0.50;;;;;;;;;;5017457;28;20239;-64
2021/05/05 22:50:10;;;;;;;0.37;0.37;;;;;;;;;;5018187;28;20691;-65
2021/05/05 22:56:09;;;;;;;5.70;2.40;;;;;;;;;;5016179;28;20239;-64
2021/05/05 23:25:23;;;;;;;5.53;1.20;;;;;;;;;;5017168;28;20869;-65
2021/05/05 23:27:29;;;;;;;0.20;0.20;;;;;;;;;;4998835;28;20200;-65
2021/05/05 23:38:42;;;;;;;0.57;0.47;;;;;;;;;;5017590;28;20771;-65
